Grawn, Michigan
Current Conditions -  °F | °C
As of 5:53 AM on Sunday 26 Oct 2014 (Local Time) from KTVC Reporting Station
Clear Clear  
Wind Chill: 44°   Ceiling: Unl
Heat Index: 47°   Visibility: 10mi
Dew Point: 33°   Wind: 6mph
Humidity: 59%   Direction: 300°WNW
Pressure: 29.87"   Gusts: NA
Location:  44.66°N, 85.69°W
Report Text: KTVC 260953Z 30005KT 10SM CLR 08/01 A2987 RMK AO2 SLP117 T00830006
Loading
Personal Weather Stations






























Interactive Weather Map
Tropical Storm Tracking
New forecast layout! Learn more

10-Day Weather Forecast

Advertisements
Track Severe Weather on mobile